Time;durP1;ratioP1;P1;durP2;ratioP2;P2;SDS_P1;SDS_P2;PMS_P1;PMS_P2;Temp;Humidity;BMP_temperature;BMP_pressure;BME280_temperature;BME280_humidity;BME280_pressure;Samples;Min_cycle;Max_cycle;Signal;HPM_P1;HPM_P2
2023/05/23 00:01:57;;;;;;;20.03;16.00;;;17.80;25.90;;;;;;5042711;28;20870;-68
2023/05/23 00:04:25;;;;;;;19.20;14.87;;;17.80;25.80;;;;;;5048027;28;20465;-68
2023/05/23 00:06:52;;;;;;;17.40;14.40;;;17.80;25.70;;;;;;5044724;28;20462;-68
2023/05/23 00:09:19;;;;;;;16.13;14.23;;;17.70;25.80;;;;;;5048163;28;20819;-70
2023/05/23 00:11:46;;;;;;;17.60;14.70;;;17.70;25.80;;;;;;5046370;28;20842;-68
2023/05/23 00:14:15;;;;;;;16.30;13.90;;;17.60;25.70;;;;;;5045555;28;20473;-65
2023/05/23 00:16:43;;;;;;;18.30;15.07;;;17.60;26.00;;;;;;5074143;22;20483;-68
2023/05/23 00:19:13;;;;;;;20.33;15.40;;;17.60;26.40;;;;;;5087251;28;20456;-68
2023/05/23 00:21:40;;;;;;;20.17;16.70;;;17.60;26.40;;;;;;5090039;28;20971;-67
2023/05/23 00:24:08;;;;;;;19.50;15.30;;;17.60;26.50;;;;;;5092376;28;20452;-66
2023/05/23 00:26:36;;;;;;;18.30;15.53;;;17.60;26.40;;;;;;5093238;28;20476;-66
2023/05/23 00:29:03;;;;;;;18.63;15.80;;;17.60;26.70;;;;;;5084372;28;20552;-65
2023/05/23 00:31:31;;;;;;;19.50;16.53;;;17.60;26.80;;;;;;5079072;28;20866;-66
2023/05/23 00:33:58;;;;;;;18.20;15.50;;;17.50;27.10;;;;;;5080977;28;20465;-66
2023/05/23 00:36:25;;;;;;;18.30;15.43;;;17.60;27.30;;;;;;5083641;28;20951;-66
2023/05/23 00:38:52;;;;;;;24.20;16.70;;;17.50;27.80;;;;;;5090328;28;21023;-66
2023/05/23 00:41:19;;;;;;;19.00;16.20;;;17.50;28.00;;;;;;5088357;28;20456;-67
2023/05/23 00:43:46;;;;;;;18.10;14.93;;;17.50;27.90;;;;;;5083779;28;20846;-67
2023/05/23 00:46:14;;;;;;;17.97;15.00;;;17.40;27.80;;;;;;5087978;28;20476;-66
2023/05/23 00:48:42;;;;;;;25.23;16.37;;;17.40;27.40;;;;;;5085378;28;20918;-66
2023/05/23 00:51:09;;;;;;;17.80;15.30;;;17.40;27.40;;;;;;5081771;28;20466;-66
2023/05/23 00:53:36;;;;;;;19.63;15.60;;;17.40;27.70;;;;;;5083747;28;20476;-65
2023/05/23 00:56:03;;;;;;;20.07;15.40;;;17.40;27.60;;;;;;5083415;28;20476;-66
2023/05/23 00:58:31;;;;;;;21.37;16.40;;;17.30;28.00;;;;;;5083980;28;20448;-66
2023/05/23 01:00:58;;;;;;;18.70;15.30;;;17.30;28.60;;;;;;5077740;28;21011;-65
2023/05/23 01:03:27;;;;;;;20.20;16.17;;;17.20;29.00;;;;;;5083346;28;20899;-66
2023/05/23 01:05:55;;;;;;;19.10;16.13;;;17.20;29.50;;;;;;5083264;28;20483;-66
2023/05/23 01:08:22;;;;;;;21.93;17.57;;;17.20;29.60;;;;;;5079929;28;20468;-67
2023/05/23 01:10:49;;;;;;;18.67;15.03;;;17.20;30.10;;;;;;5082990;28;20472;-66
2023/05/23 01:13:21;;;;;;;23.10;17.00;;;17.20;29.90;;;;;;5075202;28;20476;-66
2023/05/23 01:15:53;;;;;;;18.90;15.67;;;17.10;29.90;;;;;;5085249;28;20452;-66
2023/05/23 01:18:26;;;;;;;23.20;16.83;;;17.10;30.30;;;;;;5084104;28;20456;-67
2023/05/23 01:20:56;;;;;;;21.00;16.13;;;17.10;30.50;;;;;;5081067;28;20587;-66
2023/05/23 01:23:48;;;;;;;19.63;16.37;;;17.10;30.30;;;;;;5082144;28;20877;-66
2023/05/23 01:26:27;;;;;;;19.13;15.87;;;17.00;30.40;;;;;;5085943;28;20477;-66
2023/05/23 01:29:04;;;;;;;22.37;16.97;;;17.00;30.40;;;;;;5088589;28;20456;-66
2023/05/23 01:31:34;;;;;;;20.80;16.53;;;17.00;30.80;;;;;;5091307;28;20499;-66
2023/05/23 01:34:02;;;;;;;22.50;17.87;;;16.90;31.20;;;;;;5085542;28;20463;-66
2023/05/23 01:36:30;;;;;;;21.70;16.40;;;16.90;31.10;;;;;;5082695;28;20471;-66
2023/05/23 01:38:57;;;;;;;19.80;16.43;;;16.90;31.20;;;;;;5088134;28;20460;-66
2023/05/23 01:41:24;;;;;;;22.13;17.10;;;16.90;31.50;;;;;;5087625;28;20467;-67
2023/05/23 01:43:51;;;;;;;21.30;17.00;;;16.90;31.80;;;;;;5079524;28;20465;-66
2023/05/23 01:46:20;;;;;;;24.37;17.90;;;16.90;31.70;;;;;;5084272;28;20476;-67
2023/05/23 01:48:48;;;;;;;25.37;19.73;;;16.90;32.20;;;;;;5088029;28;21260;-64
2023/05/23 01:51:15;;;;;;;22.53;16.90;;;16.90;32.00;;;;;;5085606;28;20460;-66
2023/05/23 01:53:43;;;;;;;22.80;18.40;;;16.90;31.80;;;;;;5086679;28;20482;-67
2023/05/23 01:56:09;;;;;;;24.67;16.97;;;16.90;31.70;;;;;;5085016;28;20963;-65
2023/05/23 01:58:36;;;;;;;21.40;17.83;;;16.90;31.70;;;;;;5084546;28;20452;-66
2023/05/23 02:01:03;;;;;;;21.80;17.43;;;16.90;31.70;;;;;;5082863;28;20460;-67
2023/05/23 02:03:31;;;;;;;27.63;17.53;;;16.90;31.60;;;;;;5084102;28;21149;-66
2023/05/23 02:05:58;;;;;;;22.00;16.83;;;16.90;31.60;;;;;;5084207;28;20484;-66
2023/05/23 02:08:25;;;;;;;22.70;17.10;;;16.80;31.60;;;;;;5087658;28;20986;-65
2023/05/23 02:10:51;;;;;;;23.23;17.63;;;16.80;31.40;;;;;;5091586;28;20474;-66
2023/05/23 02:13:18;;;;;;;25.30;20.73;;;16.70;31.90;;;;;;5088864;28;20480;-66
2023/05/23 02:15:45;;;;;;;26.03;20.43;;;16.70;31.80;;;;;;5087718;28;20546;-66
2023/05/23 02:18:12;;;;;;;25.53;17.47;;;16.70;31.70;;;;;;5085008;28;20460;-66
2023/05/23 02:20:40;;;;;;;22.57;18.30;;;16.70;31.90;;;;;;5087238;28;20464;-66
2023/05/23 02:23:06;;;;;;;24.90;18.97;;;16.70;31.90;;;;;;5089429;28;20480;-66
2023/05/23 02:25:33;;;;;;;25.83;20.00;;;16.60;32.10;;;;;;5083640;28;20501;-65
2023/05/23 02:28:00;;;;;;;25.47;19.17;;;16.60;32.30;;;;;;5087379;28;20455;-66
2023/05/23 02:30:27;;;;;;;27.00;21.30;;;16.50;32.50;;;;;;5085215;28;21048;-65
2023/05/23 02:32:53;;;;;;;31.73;21.23;;;16.50;32.70;;;;;;5086125;28;20480;-66
2023/05/23 02:35:20;;;;;;;27.97;21.07;;;16.50;33.30;;;;;;5083572;28;20476;-67
2023/05/23 02:37:48;;;;;;;33.50;24.13;;;16.50;33.10;;;;;;5087357;28;20464;-66
2023/05/23 02:40:15;;;;;;;34.27;24.00;;;16.50;33.50;;;;;;5086740;28;20472;-66
2023/05/23 02:42:42;;;;;;;38.77;25.27;;;16.50;33.60;;;;;;5084690;28;20487;-65
2023/05/23 02:45:10;;;;;;;30.97;23.30;;;16.50;34.00;;;;;;5077342;28;20456;-66
2023/05/23 02:47:36;;;;;;;35.80;24.23;;;16.50;33.80;;;;;;5085061;28;21009;-66
2023/05/23 02:50:03;;;;;;;34.63;25.00;;;16.50;33.90;;;;;;5085579;28;20471;-66
2023/05/23 02:52:30;;;;;;;36.50;25.50;;;16.40;35.00;;;;;;5088209;28;20571;-66
2023/05/23 02:54:58;;;;;;;31.43;24.70;;;16.40;35.00;;;;;;5083617;28;20452;-66
2023/05/23 02:57:25;;;;;;;38.57;27.70;;;16.40;35.40;;;;;;5080168;28;20460;-66
2023/05/23 02:59:52;;;;;;;35.03;27.27;;;16.40;35.60;;;;;;5086512;28;20460;-65
2023/05/23 03:02:18;;;;;;;34.80;26.13;;;16.40;35.70;;;;;;5084071;28;20476;-65
2023/05/23 03:04:45;;;;;;;32.73;25.37;;;16.40;35.90;;;;;;5087634;28;20471;-66
2023/05/23 03:07:14;;;;;;;36.53;27.10;;;16.40;35.70;;;;;;5081802;28;20476;-66
2023/05/23 03:09:40;;;;;;;31.70;23.83;;;16.40;35.60;;;;;;5081268;28;20514;-66
2023/05/23 03:12:09;;;;;;;35.07;24.73;;;16.40;35.60;;;;;;5083787;28;20512;-66
2023/05/23 03:14:35;;;;;;;36.70;23.73;;;16.40;35.30;;;;;;5081860;28;20890;-66
2023/05/23 03:17:03;;;;;;;35.40;24.67;;;16.40;35.10;;;;;;5082304;28;20683;-66
2023/05/23 03:19:30;;;;;;;30.30;23.80;;;16.30;35.10;;;;;;5080311;28;20464;-66
2023/05/23 03:21:57;;;;;;;31.23;22.57;;;16.30;35.20;;;;;;5082234;28;20504;-66
2023/05/23 03:24:23;;;;;;;38.53;27.27;;;16.30;35.20;;;;;;5095291;28;20456;-66
2023/05/23 03:26:50;;;;;;;39.80;27.60;;;16.30;35.40;;;;;;5085230;28;20782;-70
2023/05/23 03:29:18;;;;;;;38.23;26.57;;;16.30;35.90;;;;;;5078898;28;20721;-69
2023/05/23 03:31:45;;;;;;;39.30;27.70;;;16.30;36.80;;;;;;5082246;28;21050;-68
2023/05/23 03:34:11;;;;;;;35.23;25.37;;;16.20;37.60;;;;;;5085070;28;20459;-69
2023/05/23 03:36:39;;;;;;;38.17;26.23;;;16.20;37.70;;;;;;5082848;28;20461;-69
2023/05/23 03:39:05;;;;;;;35.27;25.43;;;16.20;37.70;;;;;;5084587;28;20471;-69
2023/05/23 03:41:32;;;;;;;37.50;24.20;;;16.20;37.50;;;;;;5080616;28;20520;-65
2023/05/23 03:43:59;;;;;;;34.40;23.87;;;16.20;37.70;;;;;;5077865;28;20821;-66
2023/05/23 03:46:27;;;;;;;36.90;24.93;;;16.20;37.60;;;;;;5078459;28;20473;-65
2023/05/23 03:48:54;;;;;;;38.03;25.83;;;16.20;37.50;;;;;;5078389;28;20461;-66
2023/05/23 03:51:21;;;;;;;33.53;24.60;;;16.20;37.50;;;;;;5081186;28;20859;-66
2023/05/23 03:53:47;;;;;;;34.10;24.77;;;16.20;37.50;;;;;;5077116;28;20558;-65
2023/05/23 03:56:14;;;;;;;37.37;25.93;;;16.20;37.70;;;;;;5081946;28;20453;-65
2023/05/23 03:58:41;;;;;;;35.33;27.40;;;16.20;37.70;;;;;;5078249;28;20459;-65
2023/05/23 04:01:08;;;;;;;33.53;25.90;;;16.20;37.60;;;;;;5085687;28;20491;-64
2023/05/23 04:03:36;;;;;;;35.93;27.10;;;16.20;37.80;;;;;;5086748;28;20545;-66
2023/05/23 04:06:02;;;;;;;36.83;27.60;;;16.20;37.90;;;;;;5084568;28;20480;-68
2023/05/23 04:08:32;;;;;;;39.97;29.10;;;16.30;38.00;;;;;;5079949;28;20465;-67
2023/05/23 04:11:00;;;;;;;38.33;27.77;;;16.30;38.50;;;;;;5082554;28;21258;-69
2023/05/23 04:13:26;;;;;;;44.50;28.20;;;16.30;38.70;;;;;;5085768;28;20484;-65
2023/05/23 04:15:54;;;;;;;41.53;29.87;;;16.40;38.50;;;;;;5081104;28;20481;-66
2023/05/23 04:18:22;;;;;;;39.10;28.43;;;16.50;38.40;;;;;;5081817;28;20460;-65
2023/05/23 04:20:50;;;;;;;38.63;28.70;;;16.50;38.40;;;;;;5078450;28;20476;-67
2023/05/23 04:23:17;;;;;;;39.77;27.97;;;16.60;38.10;;;;;;5084201;28;20488;-66
2023/05/23 04:25:43;;;;;;;35.70;26.00;;;16.70;38.10;;;;;;5078539;28;20463;-66
2023/05/23 04:28:11;;;;;;;37.10;29.37;;;16.70;37.80;;;;;;5076292;28;21211;-64
2023/05/23 04:30:38;;;;;;;37.93;28.23;;;16.90;37.50;;;;;;5083353;28;20468;-65
2023/05/23 04:33:05;;;;;;;38.10;27.33;;;17.00;37.20;;;;;;5078964;28;20496;-65
2023/05/23 04:35:33;;;;;;;40.60;29.90;;;17.10;36.90;;;;;;5075357;28;20476;-65
2023/05/23 04:38:02;;;;;;;38.67;29.33;;;17.10;36.90;;;;;;5084161;28;20466;-65
2023/05/23 04:40:29;;;;;;;41.67;29.40;;;17.20;37.00;;;;;;5082402;28;20460;-64
2023/05/23 04:42:56;;;;;;;43.10;30.97;;;17.30;36.80;;;;;;5075788;28;20995;-65
2023/05/23 04:45:23;;;;;;;41.40;32.00;;;17.30;37.20;;;;;;5083597;28;20496;-65
2023/05/23 04:47:50;;;;;;;43.67;30.90;;;17.40;37.50;;;;;;5085495;28;21011;-66
2023/05/23 04:50:17;;;;;;;46.83;32.83;;;17.50;37.50;;;;;;5087766;28;20453;-65
2023/05/23 04:52:44;;;;;;;43.27;31.50;;;17.50;38.20;;;;;;5080525;28;20534;-65
2023/05/23 04:55:12;;;;;;;45.93;31.37;;;17.60;38.00;;;;;;5079834;28;20455;-66
2023/05/23 04:57:38;;;;;;;40.00;30.10;;;17.60;37.60;;;;;;5084201;28;20464;-65
2023/05/23 05:00:09;;;;;;;47.40;32.07;;;17.70;37.50;;;;;;5081609;28;21139;-65
2023/05/23 05:02:36;;;;;;;43.70;31.80;;;17.70;37.70;;;;;;5083618;28;20521;-65
2023/05/23 05:05:02;;;;;;;43.37;32.37;;;17.80;37.80;;;;;;5085556;28;20464;-66
2023/05/23 05:07:29;;;;;;;44.77;32.57;;;17.80;37.60;;;;;;5084460;28;20980;-65
2023/05/23 05:09:56;;;;;;;47.60;33.57;;;17.80;38.00;;;;;;5085235;28;20460;-65
2023/05/23 05:12:24;;;;;;;48.23;34.43;;;17.90;37.90;;;;;;5083374;28;20493;-65
2023/05/23 05:14:51;;;;;;;44.03;32.43;;;17.90;37.80;;;;;;5080850;28;20475;-66
2023/05/23 05:17:18;;;;;;;43.33;30.87;;;18.00;37.40;;;;;;5076888;28;20464;-65
2023/05/23 05:19:45;;;;;;;48.13;33.43;;;18.10;37.10;;;;;;5084328;28;20521;-65
2023/05/23 05:22:12;;;;;;;43.33;30.97;;;18.20;37.00;;;;;;5078438;28;20477;-65
2023/05/23 05:24:40;;;;;;;41.40;31.10;;;18.30;36.60;;;;;;5086839;28;20464;-65
2023/05/23 05:27:08;;;;;;;42.50;31.03;;;18.30;36.70;;;;;;5080832;28;20532;-66
2023/05/23 05:29:36;;;;;;;40.37;30.17;;;18.30;36.60;;;;;;5084029;28;20475;-66
2023/05/23 05:32:03;;;;;;;43.00;31.17;;;18.30;36.50;;;;;;5084597;28;21311;-65
2023/05/23 05:34:30;;;;;;;40.27;30.80;;;18.40;36.70;;;;;;5083034;28;20484;-65
2023/05/23 05:36:57;;;;;;;42.40;32.67;;;18.50;35.60;;;;;;5084450;28;20456;-65
2023/05/23 05:39:24;;;;;;;41.63;31.63;;;18.60;35.70;;;;;;5081594;28;21366;-65
2023/05/23 05:41:51;;;;;;;41.97;31.77;;;18.70;35.30;;;;;;5086950;28;21134;-66
2023/05/23 05:44:18;;;;;;;47.23;32.50;;;18.90;35.10;;;;;;5080261;28;20459;-65
2023/05/23 05:46:47;;;;;;;42.00;28.87;;;19.20;34.00;;;;;;5083816;28;20480;-66
2023/05/23 05:49:13;;;;;;;39.40;28.47;;;19.40;34.00;;;;;;5078788;28;20460;-65
2023/05/23 05:51:40;;;;;;;42.40;30.87;;;19.60;33.60;;;;;;5081122;28;20456;-65
2023/05/23 05:54:07;;;;;;;42.07;31.27;;;19.60;33.00;;;;;;5080587;28;20691;-66
2023/05/23 05:56:34;;;;;;;46.30;33.33;;;19.60;33.00;;;;;;5081233;28;20833;-66
2023/05/23 05:59:01;;;;;;;43.87;29.90;;;19.70;33.10;;;;;;5082782;28;20460;-66
2023/05/23 06:01:28;;;;;;;41.53;30.40;;;19.80;32.90;;;;;;5080854;28;20468;-66
2023/05/23 06:03:57;;;;;;;42.53;31.73;;;19.90;31.90;;;;;;5085428;28;20456;-65
2023/05/23 06:06:23;;;;;;;38.93;30.70;;;19.90;31.60;;;;;;5080964;28;20533;-65
2023/05/23 06:08:50;;;;;;;40.93;30.07;;;19.90;31.70;;;;;;5084568;28;20796;-66
2023/05/23 06:11:17;;;;;;;39.03;30.27;;;19.90;31.60;;;;;;5083121;28;20471;-65
2023/05/23 06:13:44;;;;;;;42.00;30.57;;;19.80;31.60;;;;;;5090052;28;20552;-66
2023/05/23 06:16:10;;;;;;;39.00;29.47;;;19.80;31.50;;;;;;5088943;28;20463;-67
2023/05/23 06:18:37;;;;;;;39.00;30.57;;;19.80;31.60;;;;;;5089526;28;20463;-66
2023/05/23 06:21:05;;;;;;;41.20;31.07;;;19.70;31.90;;;;;;5096668;28;20482;-65
2023/05/23 06:23:32;;;;;;;40.90;31.60;;;19.70;32.00;;;;;;5099500;28;20477;-65
2023/05/23 06:25:59;;;;;;;45.40;31.43;;;19.60;32.10;;;;;;5084957;28;20482;-66
2023/05/23 06:28:26;;;;;;;43.10;32.50;;;19.50;32.00;;;;;;5086452;28;20488;-65
2023/05/23 06:30:52;;;;;;;40.77;30.83;;;19.50;32.20;;;;;;5085368;28;20995;-66
2023/05/23 06:33:20;;;;;;;49.97;36.10;;;19.50;32.50;;;;;;5082144;28;21245;-66
2023/05/23 06:35:46;;;;;;;50.60;36.67;;;19.50;32.50;;;;;;5085534;28;20460;-65
2023/05/23 06:38:14;;;;;;;46.43;35.60;;;19.50;32.90;;;;;;5079130;28;20456;-65
2023/05/23 06:40:41;;;;;;;51.23;36.87;;;19.40;33.50;;;;;;5083610;28;20879;-65
2023/05/23 06:43:08;;;;;;;51.30;38.93;;;19.40;34.00;;;;;;5084094;28;20507;-65
2023/05/23 06:45:36;;;;;;;52.97;38.37;;;19.40;33.90;;;;;;5088197;28;20468;-66
2023/05/23 06:48:03;;;;;;;54.00;37.17;;;19.40;34.00;;;;;;5083414;28;21051;-66
2023/05/23 06:50:30;;;;;;;53.87;38.80;;;19.40;33.40;;;;;;5081675;28;20465;-65
2023/05/23 06:52:57;;;;;;;57.67;38.87;;;19.50;33.30;;;;;;5082671;28;20480;-65
2023/05/23 06:55:25;;;;;;;53.30;37.80;;;19.50;33.20;;;;;;5086939;28;20456;-66
2023/05/23 06:57:52;;;;;;;51.10;37.77;;;19.50;33.30;;;;;;5082372;28;20472;-66
2023/05/23 07:00:19;;;;;;;55.60;38.10;;;19.60;33.00;;;;;;5085019;28;20472;-66
2023/05/23 07:02:47;;;;;;;59.00;39.00;;;19.70;32.60;;;;;;5084072;28;20480;-65
2023/05/23 07:05:14;;;;;;;55.70;37.93;;;19.90;32.20;;;;;;5084344;28;20468;-65
2023/05/23 07:07:40;;;;;;;54.37;37.40;;;20.00;31.80;;;;;;5082519;28;20789;-66
2023/05/23 07:10:08;;;;;;;54.23;37.67;;;20.10;31.50;;;;;;5085332;28;20460;-66
2023/05/23 07:12:36;;;;;;;56.63;37.20;;;20.20;31.30;;;;;;5088837;28;20484;-66
2023/05/23 07:15:04;;;;;;;52.87;39.27;;;20.20;31.40;;;;;;5086643;28;20495;-66
2023/05/23 07:17:31;;;;;;;58.50;39.73;;;20.30;31.10;;;;;;5090582;28;20464;-66
2023/05/23 07:19:58;;;;;;;55.60;38.60;;;20.30;31.30;;;;;;5084808;28;20465;-66
2023/05/23 07:22:24;;;;;;;58.63;38.47;;;20.50;31.00;;;;;;5085236;28;21002;-66
2023/05/23 07:24:51;;;;;;;52.63;37.50;;;20.60;30.70;;;;;;5088232;28;20499;-66
2023/05/23 07:27:18;;;;;;;55.87;39.10;;;20.80;30.20;;;;;;5086981;28;20480;-65
2023/05/23 07:29:46;;;;;;;57.47;41.47;;;21.10;29.80;;;;;;5087979;28;20930;-65
2023/05/23 07:32:12;;;;;;;53.30;37.70;;;21.20;29.00;;;;;;5083471;28;20840;-67
2023/05/23 07:34:40;;;;;;;51.73;37.97;;;21.20;28.40;;;;;;5086179;28;20540;-65
2023/05/23 07:37:06;;;;;;;57.27;37.17;;;21.30;28.00;;;;;;5080966;28;20560;-66
2023/05/23 07:39:33;;;;;;;47.87;34.73;;;21.30;27.50;;;;;;5088493;28;20469;-65
2023/05/23 07:42:00;;;;;;;46.90;35.33;;;21.30;27.10;;;;;;5089347;28;20483;-66
2023/05/23 07:44:26;;;;;;;50.33;35.13;;;21.20;26.60;;;;;;5080148;28;20464;-66
2023/05/23 07:46:54;;;;;;;49.97;36.20;;;21.20;26.20;;;;;;5089228;28;20936;-66
2023/05/23 07:49:21;;;;;;;50.17;35.50;;;21.20;26.10;;;;;;5087931;28;20468;-65
2023/05/23 07:51:48;;;;;;;50.57;36.10;;;21.30;26.10;;;;;;5088924;28;20484;-65
2023/05/23 07:54:14;;;;;;;53.30;38.87;;;21.40;25.90;;;;;;5083747;28;20460;-66
2023/05/23 07:56:43;;;;;;;48.97;36.07;;;21.60;25.50;;;;;;5088980;28;20463;-66
2023/05/23 07:59:09;;;;;;;49.57;35.20;;;21.70;24.70;;;;;;5082770;28;20995;-65
2023/05/23 08:01:36;;;;;;;48.10;34.67;;;21.80;24.20;;;;;;5081659;28;20470;-66
2023/05/23 08:04:05;;;;;;;49.47;36.37;;;21.80;23.70;;;;;;5080031;28;20467;-65
2023/05/23 08:06:32;;;;;;;42.00;30.63;;;21.90;23.40;;;;;;5085490;28;20460;-66
2023/05/23 08:08:59;;;;;;;40.90;31.97;;;22.00;23.20;;;;;;5080388;28;21191;-66
2023/05/23 08:11:26;;;;;;;42.00;28.33;;;22.10;22.80;;;;;;5088200;28;20467;-66
2023/05/23 08:13:53;;;;;;;39.13;31.10;;;22.30;22.00;;;;;;5083731;28;20452;-65
2023/05/23 08:16:20;;;;;;;44.40;33.97;;;22.40;21.10;;;;;;5077169;28;20460;-66
2023/05/23 08:18:47;;;;;;;48.50;35.43;;;22.50;20.30;;;;;;5084824;28;20935;-66
2023/05/23 08:21:15;;;;;;;47.97;35.10;;;22.50;20.00;;;;;;5084507;28;20457;-66
2023/05/23 08:23:41;;;;;;;49.80;34.20;;;22.50;20.30;;;;;;5083543;28;20473;-66
2023/05/23 08:26:08;;;;;;;45.50;32.73;;;22.50;20.60;;;;;;5085209;28;20869;-66
2023/05/23 08:28:35;;;;;;;41.23;30.87;;;22.50;20.70;;;;;;5080003;28;20487;-65
2023/05/23 08:31:02;;;;;;;46.90;33.03;;;22.40;20.60;;;;;;5078017;28;20472;-66
2023/05/23 08:33:29;;;;;;;43.10;32.87;;;22.30;20.90;;;;;;5081304;28;20494;-65
2023/05/23 08:35:55;;;;;;;46.30;33.43;;;22.20;21.50;;;;;;5071573;28;20453;-65
2023/05/23 08:38:23;;;;;;;44.57;34.17;;;22.10;22.00;;;;;;5079176;28;20492;-65
2023/05/23 08:40:51;;;;;;;47.80;36.03;;;22.10;22.00;;;;;;5082858;28;20463;-66
2023/05/23 08:43:19;;;;;;;48.40;33.70;;;22.00;22.10;;;;;;5083889;28;20491;-65
2023/05/23 08:45:45;;;;;;;44.87;34.40;;;21.90;21.90;;;;;;5086123;28;20888;-66
2023/05/23 08:48:15;;;;;;;49.50;35.37;;;21.80;22.00;;;;;;5087163;28;20492;-66
2023/05/23 08:50:46;;;;;;;44.90;34.40;;;21.70;22.60;;;;;;5083934;28;20515;-65
2023/05/23 08:53:19;;;;;;;48.93;35.90;;;21.60;23.10;;;;;;5087113;28;20512;-65
2023/05/23 08:55:47;;;;;;;43.53;34.50;;;21.50;23.50;;;;;;5086218;28;20509;-65
2023/05/23 08:58:15;;;;;;;41.63;32.63;;;21.50;23.50;;;;;;5083951;28;20452;-65
2023/05/23 09:00:43;;;;;;;49.40;34.43;;;21.40;23.60;;;;;;5081703;27;20938;-65
2023/05/23 09:03:10;;;;;;;44.43;33.67;;;21.40;23.70;;;;;;5084358;28;20482;-66
2023/05/23 09:05:37;;;;;;;45.43;33.83;;;21.30;24.20;;;;;;5087888;28;20820;-66
2023/05/23 09:08:03;;;;;;;38.73;30.50;;;21.30;24.40;;;;;;5088189;28;20473;-66
2023/05/23 09:10:30;;;;;;;39.17;30.93;;;21.40;24.40;;;;;;5082694;28;20882;-65
2023/05/23 09:12:58;;;;;;;41.20;31.40;;;21.50;23.70;;;;;;5083657;28;20483;-65
2023/05/23 09:15:26;;;;;;;40.20;32.20;;;21.60;23.30;;;;;;5078224;28;20489;-66
2023/05/23 09:17:52;;;;;;;38.80;30.50;;;21.60;23.40;;;;;;5093767;28;20488;-65
2023/05/23 09:20:19;;;;;;;38.17;30.50;;;21.70;23.60;;;;;;5088312;28;20464;-66
2023/05/23 09:22:47;;;;;;;35.93;28.77;;;21.70;22.70;;;;;;5086421;28;20472;-66
2023/05/23 09:25:14;;;;;;;39.20;30.07;;;21.70;22.40;;;;;;5088026;28;20495;-65
2023/05/23 09:27:42;;;;;;;40.77;31.53;;;21.90;21.90;;;;;;5077455;28;20477;-66
2023/05/23 09:30:12;;;;;;;37.10;28.77;;;22.30;21.00;;;;;;5080577;28;20472;-66
2023/05/23 09:32:40;;;;;;;42.40;33.57;;;22.80;20.10;;;;;;5077241;28;20461;-65
2023/05/23 09:35:11;;;;;;;38.10;29.40;;;23.10;19.80;;;;;;5084404;28;20456;-65
2023/05/23 09:37:42;;;;;;;32.43;27.23;;;23.50;18.10;;;;;;5088963;28;20453;-66
2023/05/23 09:40:11;;;;;;;35.33;30.97;;;23.70;16.90;;;;;;5085303;28;20456;-65
2023/05/23 09:42:42;;;;;;;35.00;29.73;;;23.70;16.40;;;;;;5081269;28;20488;-66
2023/05/23 09:45:11;;;;;;;33.37;28.13;;;24.10;16.50;;;;;;5084992;28;20934;-67
2023/05/23 09:47:38;;;;;;;39.60;32.77;;;24.50;15.80;;;;;;5081615;28;20483;-65
2023/05/23 09:50:07;;;;;;;39.37;33.70;;;24.90;15.40;;;;;;5089803;28;20463;-65
2023/05/23 09:52:38;;;;;;;31.17;26.80;;;25.20;14.70;;;;;;5086982;28;20488;-66
2023/05/23 09:55:05;;;;;;;32.43;27.93;;;25.70;13.90;;;;;;5082759;28;20457;-65
2023/05/23 09:57:35;;;;;;;31.77;27.83;;;26.20;13.10;;;;;;5090192;28;20467;-67
2023/05/23 10:00:05;;;;;;;35.27;30.83;;;26.90;11.50;;;;;;5090616;28;20456;-67
2023/05/23 10:02:53;;;;;;;34.60;30.83;;;27.50;11.20;;;;;;5087741;28;20500;-67
2023/05/23 10:05:33;;;;;;;35.67;29.60;;;27.80;8.50;;;;;;5083729;28;20456;-67
2023/05/23 10:08:01;;;;;;;35.73;28.50;;;27.90;8.30;;;;;;5083186;28;20479;-66
2023/05/23 10:10:31;;;;;;;30.27;25.93;;;28.10;8.00;;;;;;5089968;28;20471;-66
2023/05/23 10:13:01;;;;;;;29.23;24.80;;;28.20;7.60;;;;;;5082773;28;20477;-66
2023/05/23 10:15:33;;;;;;;28.50;25.43;;;28.40;6.80;;;;;;5085458;28;20459;-67
2023/05/23 10:18:09;;;;;;;32.67;27.80;;;28.60;6.50;;;;;;5083880;28;20920;-67
2023/05/23 10:20:39;;;;;;;32.90;28.07;;;28.70;5.90;;;;;;5088883;28;20468;-66
2023/05/23 10:23:06;;;;;;;38.00;33.93;;;28.60;5.60;;;;;;5087134;28;20484;-66
2023/05/23 10:25:35;;;;;;;38.47;34.30;;;28.20;6.30;;;;;;5086021;28;20460;-66
2023/05/23 10:28:03;;;;;;;43.17;34.57;;;28.20;7.20;;;;;;5089562;28;21048;-66
2023/05/23 10:30:30;;;;;;;35.23;31.70;;;28.20;6.60;;;;;;5082982;28;20468;-66
2023/05/23 10:32:58;;;;;;;36.63;32.67;;;28.10;6.80;;;;;;5085492;28;20565;-66
2023/05/23 10:35:37;;;;;;;33.63;30.10;;;28.10;7.00;;;;;;5088048;28;20471;-67
2023/05/23 10:38:11;;;;;;;30.13;26.80;;;28.20;7.00;;;;;;5082004;28;20448;-66
2023/05/23 10:40:50;;;;;;;33.00;29.23;;;28.40;6.30;;;;;;5086729;28;20840;-67
2023/05/23 10:43:25;;;;;;;33.13;29.60;;;28.20;5.90;;;;;;5086189;28;20508;-67
2023/05/23 10:45:52;;;;;;;35.00;31.13;;;27.60;6.20;;;;;;5086936;28;20499;-67
2023/05/23 10:48:22;;;;;;;35.53;30.40;;;27.10;7.00;;;;;;5083137;28;20480;-66
2023/05/23 10:51:04;;;;;;;31.03;27.77;;;26.80;8.20;;;;;;5087438;28;20457;-66
2023/05/23 10:53:34;;;;;;;33.10;29.60;;;26.70;8.90;;;;;;5083555;28;20484;-66
2023/05/23 10:56:01;;;;;;;34.23;30.20;;;26.70;7.40;;;;;;5077381;28;20465;-66
2023/05/23 10:58:30;;;;;;;33.27;29.67;;;26.90;8.00;;;;;;5082073;28;20460;-66
2023/05/23 11:01:01;;;;;;;34.43;30.73;;;27.00;8.60;;;;;;5076694;28;20544;-67
2023/05/23 11:03:33;;;;;;;32.43;27.73;;;26.90;7.80;;;;;;5085013;28;20545;-66
2023/05/23 11:06:01;;;;;;;31.13;27.83;;;26.90;8.30;;;;;;5085956;28;20460;-66
2023/05/23 11:08:37;;;;;;;31.80;28.40;;;27.00;8.60;;;;;;5079882;28;20508;-67
2023/05/23 11:11:05;;;;;;;31.07;27.70;;;27.00;7.90;;;;;;5083845;28;20464;-66
2023/05/23 11:13:55;;;;;;;32.60;29.20;;;27.00;8.50;;;;;;5081032;28;20500;-66
2023/05/23 11:16:26;;;;;;;30.73;27.53;;;27.00;8.20;;;;;;5085828;28;20460;-66
2023/05/23 11:19:17;;;;;;;32.00;27.37;;;26.90;7.70;;;;;;5088945;28;20835;-66
2023/05/23 11:21:45;;;;;;;28.40;25.43;;;26.80;9.60;;;;;;5086148;28;20488;-66
2023/05/23 11:24:13;;;;;;;25.67;23.03;;;26.80;7.80;;;;;;5088752;28;21008;-67
2023/05/23 11:26:40;;;;;;;28.90;25.77;;;27.00;8.40;;;;;;5081874;28;20464;-66
2023/05/23 11:29:09;;;;;;;32.10;28.77;;;27.00;7.90;;;;;;5085710;28;20476;-67
2023/05/23 11:31:37;;;;;;;30.20;26.97;;;26.80;9.00;;;;;;5087142;28;21028;-66
2023/05/23 11:34:05;;;;;;;29.60;26.70;;;26.60;8.20;;;;;;5084110;28;20456;-66
2023/05/23 11:36:31;;;;;;;32.23;29.00;;;26.50;8.10;;;;;;5088884;28;21158;-67
2023/05/23 11:39:02;;;;;;;28.23;25.43;;;26.40;10.10;;;;;;5080582;28;20461;-67
2023/05/23 11:41:32;;;;;;;32.47;28.80;;;26.20;9.00;;;;;;5085297;28;20468;-66
2023/05/23 11:44:00;;;;;;;31.00;27.80;;;26.10;10.60;;;;;;5080899;28;20509;-67
2023/05/23 11:46:27;;;;;;;30.80;27.63;;;25.90;10.50;;;;;;5084520;28;20452;-67
2023/05/23 11:48:53;;;;;;;31.10;27.83;;;25.90;10.60;;;;;;5082800;28;20822;-67
2023/05/23 11:51:20;;;;;;;27.00;24.20;;;26.00;10.90;;;;;;5084548;28;20468;-66
2023/05/23 11:53:47;;;;;;;25.23;22.30;;;26.00;10.20;;;;;;5087221;28;20464;-65
2023/05/23 11:56:15;;;;;;;26.53;22.37;;;26.10;9.50;;;;;;5085001;28;20464;-66
2023/05/23 11:58:44;;;;;;;29.23;26.13;;;26.10;9.00;;;;;;5081123;28;20995;-67
2023/05/23 12:01:12;;;;;;;32.53;29.10;;;26.10;8.70;;;;;;5083988;28;20562;-66
2023/05/23 12:03:46;;;;;;;30.53;27.27;;;26.00;10.30;;;;;;5081193;28;20472;-66
2023/05/23 12:06:15;;;;;;;31.90;28.37;;;25.90;10.30;;;;;;5080415;28;20509;-66
2023/05/23 12:08:41;;;;;;;23.60;21.20;;;25.90;10.80;;;;;;5084051;28;20480;-66
2023/05/23 12:11:08;;;;;;;25.33;22.77;;;25.90;9.40;;;;;;5084905;28;20868;-66
2023/05/23 12:13:35;;;;;;;25.07;21.10;;;25.80;8.90;;;;;;5080421;28;20488;-66
2023/05/23 12:16:04;;;;;;;27.30;22.10;;;25.80;8.90;;;;;;5091987;28;20459;-66
2023/05/23 12:18:32;;;;;;;23.40;21.10;;;25.90;8.10;;;;;;5088946;28;20483;-67
2023/05/23 12:21:04;;;;;;;26.00;23.30;;;25.90;8.00;;;;;;5080359;28;20456;-67
2023/05/23 12:23:32;;;;;;;23.47;20.97;;;26.00;9.00;;;;;;5081059;28;20476;-67
2023/05/23 12:25:59;;;;;;;24.30;21.87;;;26.00;9.20;;;;;;5085262;28;20460;-66
2023/05/23 12:28:36;;;;;;;21.23;19.13;;;25.90;8.50;;;;;;5082701;28;20952;-66
2023/05/23 12:31:13;;;;;;;21.63;18.93;;;25.80;8.30;;;;;;5079647;28;20471;-65
2023/05/23 12:33:42;;;;;;;18.83;16.70;;;25.70;8.20;;;;;;5080550;28;20475;-67